Los Palacios y Villafranca, Spain
Current Conditions -  °F | °C
As of 6:00 PM on Monday 24 Nov 2014 (Local Time) from LEMO Reporting Station
Few Clouds Few Clouds  
Wind Chill: 66°   Ceiling: Unl
Heat Index: 66°   Visibility: 6mi
Dew Point: 61°   Wind: 3mph
Humidity: 83%   Direction: 270°W
Pressure: 30"   Gusts: NA
Location:  37.16°N, 5.92°W
Report Text: LEMO 241700Z 27003KT 9999 FEW030 FEW035TCU 19/16 Q1016 NOSIG
Loading
Personal Weather Stations






























Interactive Weather Map New forecast layout! Learn more

10-Day Weather Forecast

Advertisements
Track Severe Weather on mobile